sensor_id;sensor_type;location;lat;lon;timestamp;temperature;humidity
71668;DHT22;59504;54.806;9.640;2023-07-09T00:02:05;16.20;55.30
71668;DHT22;59504;54.806;9.640;2023-07-09T00:04:26;16.10;54.80
71668;DHT22;59504;54.806;9.640;2023-07-09T00:06:48;16.10;55.10
71668;DHT22;59504;54.806;9.640;2023-07-09T00:09:16;16.10;55.50
71668;DHT22;59504;54.806;9.640;2023-07-09T00:11:18;16.10;55.60
71668;DHT22;59504;54.806;9.640;2023-07-09T00:13:39;16.00;55.40
71668;DHT22;59504;54.806;9.640;2023-07-09T00:16:00;16.00;56.10
71668;DHT22;59504;54.806;9.640;2023-07-09T00:18:21;15.90;56.50
71668;DHT22;59504;54.806;9.640;2023-07-09T00:20:43;15.90;56.30
71668;DHT22;59504;54.806;9.640;2023-07-09T00:23:04;15.90;57.30
71668;DHT22;59504;54.806;9.640;2023-07-09T00:25:24;15.90;59.90
71668;DHT22;59504;54.806;9.640;2023-07-09T00:27:45;15.90;57.90
71668;DHT22;59504;54.806;9.640;2023-07-09T00:30:12;15.90;57.60
71668;DHT22;59504;54.806;9.640;2023-07-09T00:32:35;15.90;58.10
71668;DHT22;59504;54.806;9.640;2023-07-09T00:35:03;15.90;58.10
71668;DHT22;59504;54.806;9.640;2023-07-09T00:37:25;15.80;57.90
71668;DHT22;59504;54.806;9.640;2023-07-09T00:39:46;15.80;57.90
71668;DHT22;59504;54.806;9.640;2023-07-09T00:41:47;15.90;58.00
71668;DHT22;59504;54.806;9.640;2023-07-09T00:43:49;15.90;58.20
71668;DHT22;59504;54.806;9.640;2023-07-09T00:48:12;15.80;58.20
71668;DHT22;59504;54.806;9.640;2023-07-09T00:52:21;15.80;58.30
71668;DHT22;59504;54.806;9.640;2023-07-09T00:56:42;15.80;58.30
71668;DHT22;59504;54.806;9.640;2023-07-09T00:58:46;15.80;58.10
71668;DHT22;59504;54.806;9.640;2023-07-09T01:00:49;15.80;57.80
71668;DHT22;59504;54.806;9.640;2023-07-09T01:02:55;15.80;58.20
71668;DHT22;59504;54.806;9.640;2023-07-09T01:04:58;15.80;58.40
71668;DHT22;59504;54.806;9.640;2023-07-09T01:07:00;15.80;58.50
71668;DHT22;59504;54.806;9.640;2023-07-09T01:09:01;15.70;58.60
71668;DHT22;59504;54.806;9.640;2023-07-09T01:11:02;15.70;58.80
71668;DHT22;59504;54.806;9.640;2023-07-09T01:13:03;15.70;58.70
71668;DHT22;59504;54.806;9.640;2023-07-09T01:15:03;15.70;58.90
71668;DHT22;59504;54.806;9.640;2023-07-09T01:17:07;15.60;58.50
71668;DHT22;59504;54.806;9.640;2023-07-09T01:19:09;15.70;58.30
71668;DHT22;59504;54.806;9.640;2023-07-09T01:21:11;15.60;58.70
71668;DHT22;59504;54.806;9.640;2023-07-09T01:23:15;15.60;58.70
71668;DHT22;59504;54.806;9.640;2023-07-09T01:25:17;15.60;58.80
71668;DHT22;59504;54.806;9.640;2023-07-09T01:27:19;15.60;58.90
71668;DHT22;59504;54.806;9.640;2023-07-09T01:29:20;15.60;59.00
71668;DHT22;59504;54.806;9.640;2023-07-09T01:31:20;15.60;59.00
71668;DHT22;59504;54.806;9.640;2023-07-09T01:33:22;15.70;59.00
71668;DHT22;59504;54.806;9.640;2023-07-09T01:35:23;15.60;59.10
71668;DHT22;59504;54.806;9.640;2023-07-09T01:37:26;15.60;58.80
71668;DHT22;59504;54.806;9.640;2023-07-09T01:39:27;15.60;59.10
71668;DHT22;59504;54.806;9.640;2023-07-09T01:41:28;15.60;58.80
71668;DHT22;59504;54.806;9.640;2023-07-09T01:43:32;15.70;59.10
71668;DHT22;59504;54.806;9.640;2023-07-09T01:45:34;15.60;59.10
71668;DHT22;59504;54.806;9.640;2023-07-09T01:47:34;15.60;59.20
71668;DHT22;59504;54.806;9.640;2023-07-09T01:49:36;15.60;59.50
71668;DHT22;59504;54.806;9.640;2023-07-09T01:51:36;15.50;59.30
71668;DHT22;59504;54.806;9.640;2023-07-09T01:53:38;15.60;59.50
71668;DHT22;59504;54.806;9.640;2023-07-09T01:55:39;15.60;59.50
71668;DHT22;59504;54.806;9.640;2023-07-09T01:57:39;15.50;59.50
71668;DHT22;59504;54.806;9.640;2023-07-09T01:59:41;15.50;59.60
71668;DHT22;59504;54.806;9.640;2023-07-09T02:01:42;15.50;59.50
71668;DHT22;59504;54.806;9.640;2023-07-09T02:03:43;15.50;59.50
71668;DHT22;59504;54.806;9.640;2023-07-09T02:05:43;15.50;59.50
71668;DHT22;59504;54.806;9.640;2023-07-09T02:07:44;15.40;59.60
71668;DHT22;59504;54.806;9.640;2023-07-09T02:09:45;15.40;59.60
71668;DHT22;59504;54.806;9.640;2023-07-09T02:11:45;15.40;59.60
71668;DHT22;59504;54.806;9.640;2023-07-09T02:13:46;15.40;59.70
71668;DHT22;59504;54.806;9.640;2023-07-09T02:15:46;15.40;59.80
71668;DHT22;59504;54.806;9.640;2023-07-09T02:17:50;15.40;59.70
71668;DHT22;59504;54.806;9.640;2023-07-09T02:19:52;15.30;59.90
71668;DHT22;59504;54.806;9.640;2023-07-09T02:21:53;15.30;59.90
71668;DHT22;59504;54.806;9.640;2023-07-09T02:23:53;15.30;60.00
71668;DHT22;59504;54.806;9.640;2023-07-09T02:25:54;15.30;59.90
71668;DHT22;59504;54.806;9.640;2023-07-09T02:27:54;15.30;59.90
71668;DHT22;59504;54.806;9.640;2023-07-09T02:29:55;15.20;59.60
71668;DHT22;59504;54.806;9.640;2023-07-09T02:31:56;15.20;60.00
71668;DHT22;59504;54.806;9.640;2023-07-09T02:33:58;15.20;60.10
71668;DHT22;59504;54.806;9.640;2023-07-09T02:35:58;15.20;59.90
71668;DHT22;59504;54.806;9.640;2023-07-09T02:37:59;15.20;60.00
71668;DHT22;59504;54.806;9.640;2023-07-09T02:39:59;15.20;61.00
71668;DHT22;59504;54.806;9.640;2023-07-09T02:42:00;15.20;60.20
71668;DHT22;59504;54.806;9.640;2023-07-09T02:44:00;15.20;60.30
71668;DHT22;59504;54.806;9.640;2023-07-09T02:46:01;15.20;60.20
71668;DHT22;59504;54.806;9.640;2023-07-09T02:48:02;15.30;60.30
71668;DHT22;59504;54.806;9.640;2023-07-09T02:50:02;15.10;60.20
71668;DHT22;59504;54.806;9.640;2023-07-09T02:52:03;15.10;60.20
71668;DHT22;59504;54.806;9.640;2023-07-09T02:54:04;15.10;60.30
71668;DHT22;59504;54.806;9.640;2023-07-09T02:56:05;15.10;60.50
71668;DHT22;59504;54.806;9.640;2023-07-09T02:58:05;15.10;60.40
71668;DHT22;59504;54.806;9.640;2023-07-09T03:00:06;15.10;60.40
71668;DHT22;59504;54.806;9.640;2023-07-09T03:02:08;15.10;60.60
71668;DHT22;59504;54.806;9.640;2023-07-09T03:04:09;15.10;60.70
71668;DHT22;59504;54.806;9.640;2023-07-09T03:06:10;15.10;60.90
71668;DHT22;59504;54.806;9.640;2023-07-09T03:08:10;15.20;60.90
71668;DHT22;59504;54.806;9.640;2023-07-09T03:10:11;15.10;60.80
71668;DHT22;59504;54.806;9.640;2023-07-09T03:12:11;15.10;61.30
71668;DHT22;59504;54.806;9.640;2023-07-09T03:14:12;15.10;61.60
71668;DHT22;59504;54.806;9.640;2023-07-09T03:16:13;15.10;61.70
71668;DHT22;59504;54.806;9.640;2023-07-09T03:18:14;15.10;62.00
71668;DHT22;59504;54.806;9.640;2023-07-09T03:20:14;15.10;62.10
71668;DHT22;59504;54.806;9.640;2023-07-09T03:22:15;15.10;61.60
71668;DHT22;59504;54.806;9.640;2023-07-09T03:24:16;15.10;61.70
71668;DHT22;59504;54.806;9.640;2023-07-09T03:26:18;15.00;61.70
71668;DHT22;59504;54.806;9.640;2023-07-09T03:28:21;15.10;61.80
71668;DHT22;59504;54.806;9.640;2023-07-09T03:30:42;15.10;61.80
71668;DHT22;59504;54.806;9.640;2023-07-09T03:33:06;15.10;61.70
71668;DHT22;59504;54.806;9.640;2023-07-09T03:35:26;15.10;62.00
71668;DHT22;59504;54.806;9.640;2023-07-09T03:37:47;15.10;62.20
71668;DHT22;59504;54.806;9.640;2023-07-09T03:40:09;15.10;62.40
71668;DHT22;59504;54.806;9.640;2023-07-09T03:42:30;15.10;62.50
71668;DHT22;59504;54.806;9.640;2023-07-09T03:44:50;15.20;62.10
71668;DHT22;59504;54.806;9.640;2023-07-09T03:47:11;15.20;62.00
71668;DHT22;59504;54.806;9.640;2023-07-09T03:49:32;15.20;62.10
71668;DHT22;59504;54.806;9.640;2023-07-09T03:51:52;15.20;62.50
71668;DHT22;59504;54.806;9.640;2023-07-09T03:53:53;15.30;62.90
71668;DHT22;59504;54.806;9.640;2023-07-09T03:55:56;15.30;65.60
71668;DHT22;59504;54.806;9.640;2023-07-09T03:57:57;15.40;65.80
71668;DHT22;59504;54.806;9.640;2023-07-09T03:59:58;15.40;66.10
71668;DHT22;59504;54.806;9.640;2023-07-09T04:02:18;15.50;65.70
71668;DHT22;59504;54.806;9.640;2023-07-09T04:04:19;15.60;66.10
71668;DHT22;59504;54.806;9.640;2023-07-09T04:06:20;15.60;66.40
71668;DHT22;59504;54.806;9.640;2023-07-09T04:08:23;15.70;66.70
71668;DHT22;59504;54.806;9.640;2023-07-09T04:10:25;15.70;67.60
71668;DHT22;59504;54.806;9.640;2023-07-09T04:12:26;15.80;67.50
71668;DHT22;59504;54.806;9.640;2023-07-09T04:14:27;15.80;68.00
71668;DHT22;59504;54.806;9.640;2023-07-09T04:16:27;16.00;68.20
71668;DHT22;59504;54.806;9.640;2023-07-09T04:18:28;16.00;70.00
71668;DHT22;59504;54.806;9.640;2023-07-09T04:20:28;16.20;70.50
71668;DHT22;59504;54.806;9.640;2023-07-09T04:22:29;16.20;71.70
71668;DHT22;59504;54.806;9.640;2023-07-09T04:24:32;16.30;70.30
71668;DHT22;59504;54.806;9.640;2023-07-09T04:26:33;16.40;73.50
71668;DHT22;59504;54.806;9.640;2023-07-09T04:28:34;16.50;74.10
71668;DHT22;59504;54.806;9.640;2023-07-09T04:30:35;16.60;72.60
71668;DHT22;59504;54.806;9.640;2023-07-09T04:32:58;16.80;71.20
71668;DHT22;59504;54.806;9.640;2023-07-09T04:34:59;16.90;70.20
71668;DHT22;59504;54.806;9.640;2023-07-09T04:37:20;17.00;69.30
71668;DHT22;59504;54.806;9.640;2023-07-09T04:39:40;17.10;68.10
71668;DHT22;59504;54.806;9.640;2023-07-09T04:41:41;17.20;68.60
71668;DHT22;59504;54.806;9.640;2023-07-09T04:43:41;17.20;73.70
71668;DHT22;59504;54.806;9.640;2023-07-09T04:45:45;17.30;73.90
71668;DHT22;59504;54.806;9.640;2023-07-09T04:47:45;17.40;75.20
71668;DHT22;59504;54.806;9.640;2023-07-09T04:49:46;17.50;74.90
71668;DHT22;59504;54.806;9.640;2023-07-09T04:51:47;17.60;73.60
71668;DHT22;59504;54.806;9.640;2023-07-09T04:53:47;17.60;73.80
71668;DHT22;59504;54.806;9.640;2023-07-09T04:55:49;17.80;72.10
71668;DHT22;59504;54.806;9.640;2023-07-09T04:57:50;17.80;73.00
71668;DHT22;59504;54.806;9.640;2023-07-09T04:59:50;17.80;74.30
71668;DHT22;59504;54.806;9.640;2023-07-09T05:01:51;17.90;76.20
71668;DHT22;59504;54.806;9.640;2023-07-09T05:03:51;18.00;75.70
71668;DHT22;59504;54.806;9.640;2023-07-09T05:05:52;18.10;75.20
71668;DHT22;59504;54.806;9.640;2023-07-09T05:07:52;18.10;76.80
71668;DHT22;59504;54.806;9.640;2023-07-09T05:09:53;18.20;75.90
71668;DHT22;59504;54.806;9.640;2023-07-09T05:11:54;18.20;75.30
71668;DHT22;59504;54.806;9.640;2023-07-09T05:13:54;18.30;74.20
71668;DHT22;59504;54.806;9.640;2023-07-09T05:15:55;18.40;73.50
71668;DHT22;59504;54.806;9.640;2023-07-09T05:17:55;18.50;73.00
71668;DHT22;59504;54.806;9.640;2023-07-09T05:19:56;18.50;73.60
71668;DHT22;59504;54.806;9.640;2023-07-09T05:21:57;18.60;72.80
71668;DHT22;59504;54.806;9.640;2023-07-09T05:23:57;18.60;71.70
71668;DHT22;59504;54.806;9.640;2023-07-09T05:25:59;18.70;73.20
71668;DHT22;59504;54.806;9.640;2023-07-09T05:28:00;18.80;72.10
71668;DHT22;59504;54.806;9.640;2023-07-09T05:34:36;18.90;69.80
71668;DHT22;59504;54.806;9.640;2023-07-09T05:36:42;18.90;71.10
71668;DHT22;59504;54.806;9.640;2023-07-09T05:38:43;19.00;72.10
71668;DHT22;59504;54.806;9.640;2023-07-09T05:40:59;18.90;71.70
71668;DHT22;59504;54.806;9.640;2023-07-09T05:43:07;19.00;72.10
71668;DHT22;59504;54.806;9.640;2023-07-09T05:45:18;19.00;71.60
71668;DHT22;59504;54.806;9.640;2023-07-09T05:47:18;19.20;70.60
71668;DHT22;59504;54.806;9.640;2023-07-09T05:49:19;19.30;71.70
71668;DHT22;59504;54.806;9.640;2023-07-09T05:51:20;19.30;71.60
71668;DHT22;59504;54.806;9.640;2023-07-09T05:53:22;19.30;71.30
71668;DHT22;59504;54.806;9.640;2023-07-09T05:55:22;19.40;70.10
71668;DHT22;59504;54.806;9.640;2023-07-09T05:57:23;19.40;70.80
71668;DHT22;59504;54.806;9.640;2023-07-09T05:59:23;19.50;69.70
71668;DHT22;59504;54.806;9.640;2023-07-09T06:01:24;19.50;70.00
71668;DHT22;59504;54.806;9.640;2023-07-09T06:03:26;19.60;69.60
71668;DHT22;59504;54.806;9.640;2023-07-09T06:05:27;19.70;70.20
71668;DHT22;59504;54.806;9.640;2023-07-09T06:07:29;19.70;69.30
71668;DHT22;59504;54.806;9.640;2023-07-09T06:09:30;19.70;68.60
71668;DHT22;59504;54.806;9.640;2023-07-09T06:11:31;19.80;68.50
71668;DHT22;59504;54.806;9.640;2023-07-09T06:13:32;19.80;68.60
71668;DHT22;59504;54.806;9.640;2023-07-09T06:15:33;19.90;68.40
71668;DHT22;59504;54.806;9.640;2023-07-09T06:17:33;19.90;68.80
71668;DHT22;59504;54.806;9.640;2023-07-09T06:19:34;20.10;68.40
71668;DHT22;59504;54.806;9.640;2023-07-09T06:21:34;20.10;68.20
71668;DHT22;59504;54.806;9.640;2023-07-09T06:23:35;20.20;67.90
71668;DHT22;59504;54.806;9.640;2023-07-09T06:25:37;20.30;67.40
71668;DHT22;59504;54.806;9.640;2023-07-09T06:27:38;20.40;67.20
71668;DHT22;59504;54.806;9.640;2023-07-09T06:29:38;20.40;66.80
71668;DHT22;59504;54.806;9.640;2023-07-09T06:31:39;20.50;66.30
71668;DHT22;59504;54.806;9.640;2023-07-09T06:33:40;20.60;66.20
71668;DHT22;59504;54.806;9.640;2023-07-09T06:35:48;20.60;65.70
71668;DHT22;59504;54.806;9.640;2023-07-09T06:37:49;20.70;65.50
71668;DHT22;59504;54.806;9.640;2023-07-09T06:39:49;20.70;65.30
71668;DHT22;59504;54.806;9.640;2023-07-09T06:41:50;20.70;64.20
71668;DHT22;59504;54.806;9.640;2023-07-09T06:43:53;20.90;64.60
71668;DHT22;59504;54.806;9.640;2023-07-09T06:45:55;20.90;64.00
71668;DHT22;59504;54.806;9.640;2023-07-09T06:47:56;20.90;63.40
71668;DHT22;59504;54.806;9.640;2023-07-09T06:49:56;21.00;63.20
71668;DHT22;59504;54.806;9.640;2023-07-09T06:52:00;21.10;63.20
71668;DHT22;59504;54.806;9.640;2023-07-09T06:54:00;21.10;62.80
71668;DHT22;59504;54.806;9.640;2023-07-09T06:56:01;21.20;62.20
71668;DHT22;59504;54.806;9.640;2023-07-09T06:58:01;21.20;62.00
71668;DHT22;59504;54.806;9.640;2023-07-09T07:00:02;21.20;60.80
71668;DHT22;59504;54.806;9.640;2023-07-09T07:02:03;21.30;60.10
71668;DHT22;59504;54.806;9.640;2023-07-09T07:04:03;21.30;60.80
71668;DHT22;59504;54.806;9.640;2023-07-09T07:06:04;21.40;60.70
71668;DHT22;59504;54.806;9.640;2023-07-09T07:08:06;21.40;60.60
71668;DHT22;59504;54.806;9.640;2023-07-09T07:10:07;21.40;59.60
71668;DHT22;59504;54.806;9.640;2023-07-09T07:12:08;21.40;58.50
71668;DHT22;59504;54.806;9.640;2023-07-09T07:14:09;21.50;59.30
71668;DHT22;59504;54.806;9.640;2023-07-09T07:16:10;21.60;59.30
71668;DHT22;59504;54.806;9.640;2023-07-09T07:18:11;21.70;59.20
71668;DHT22;59504;54.806;9.640;2023-07-09T07:20:12;21.70;58.80
71668;DHT22;59504;54.806;9.640;2023-07-09T07:22:12;21.80;58.80
71668;DHT22;59504;54.806;9.640;2023-07-09T07:24:13;21.90;58.70
71668;DHT22;59504;54.806;9.640;2023-07-09T07:26:14;21.90;58.00
71668;DHT22;59504;54.806;9.640;2023-07-09T07:28:14;22.00;58.60
71668;DHT22;59504;54.806;9.640;2023-07-09T07:30:15;22.00;57.60
71668;DHT22;59504;54.806;9.640;2023-07-09T07:32:16;22.10;56.60
71668;DHT22;59504;54.806;9.640;2023-07-09T07:34:16;22.10;56.20
71668;DHT22;59504;54.806;9.640;2023-07-09T07:36:17;22.20;56.30
71668;DHT22;59504;54.806;9.640;2023-07-09T07:38:17;22.30;57.00
71668;DHT22;59504;54.806;9.640;2023-07-09T07:40:18;22.30;56.80
71668;DHT22;59504;54.806;9.640;2023-07-09T07:42:18;22.40;56.30
71668;DHT22;59504;54.806;9.640;2023-07-09T07:44:19;22.40;55.90
71668;DHT22;59504;54.806;9.640;2023-07-09T07:46:20;22.50;56.00
71668;DHT22;59504;54.806;9.640;2023-07-09T07:48:20;22.60;55.30
71668;DHT22;59504;54.806;9.640;2023-07-09T07:50:21;22.60;53.50
71668;DHT22;59504;54.806;9.640;2023-07-09T07:52:21;22.60;53.70
71668;DHT22;59504;54.806;9.640;2023-07-09T07:54:22;22.70;53.70
71668;DHT22;59504;54.806;9.640;2023-07-09T07:56:23;22.70;52.70
71668;DHT22;59504;54.806;9.640;2023-07-09T07:58:23;22.70;52.10
71668;DHT22;59504;54.806;9.640;2023-07-09T08:00:24;22.80;51.60
71668;DHT22;59504;54.806;9.640;2023-07-09T08:02:25;22.80;51.30
71668;DHT22;59504;54.806;9.640;2023-07-09T08:04:26;22.80;51.20
71668;DHT22;59504;54.806;9.640;2023-07-09T08:06:26;22.90;51.40
71668;DHT22;59504;54.806;9.640;2023-07-09T08:08:26;22.90;51.40
71668;DHT22;59504;54.806;9.640;2023-07-09T08:10:27;23.00;51.80
71668;DHT22;59504;54.806;9.640;2023-07-09T08:12:28;23.00;51.30
71668;DHT22;59504;54.806;9.640;2023-07-09T08:14:28;23.10;50.70
71668;DHT22;59504;54.806;9.640;2023-07-09T08:16:29;23.20;50.90
71668;DHT22;59504;54.806;9.640;2023-07-09T08:18:29;23.20;50.30
71668;DHT22;59504;54.806;9.640;2023-07-09T08:20:30;23.30;50.80
71668;DHT22;59504;54.806;9.640;2023-07-09T08:22:33;23.40;49.80
71668;DHT22;59504;54.806;9.640;2023-07-09T08:24:33;23.40;50.40
71668;DHT22;59504;54.806;9.640;2023-07-09T08:26:34;23.50;51.10
71668;DHT22;59504;54.806;9.640;2023-07-09T08:28:34;23.50;50.80
71668;DHT22;59504;54.806;9.640;2023-07-09T08:30:35;23.50;50.90
71668;DHT22;59504;54.806;9.640;2023-07-09T08:32:36;23.40;51.10
71668;DHT22;59504;54.806;9.640;2023-07-09T08:34:37;23.40;51.70
71668;DHT22;59504;54.806;9.640;2023-07-09T08:36:38;23.40;52.00
71668;DHT22;59504;54.806;9.640;2023-07-09T08:38:39;23.40;51.90
71668;DHT22;59504;54.806;9.640;2023-07-09T08:40:47;23.40;51.70
71668;DHT22;59504;54.806;9.640;2023-07-09T08:42:51;23.40;50.80
71668;DHT22;59504;54.806;9.640;2023-07-09T08:45:00;23.40;50.60
71668;DHT22;59504;54.806;9.640;2023-07-09T08:49:03;23.50;51.70
71668;DHT22;59504;54.806;9.640;2023-07-09T08:51:29;23.50;50.00
71668;DHT22;59504;54.806;9.640;2023-07-09T08:53:36;23.60;51.00
71668;DHT22;59504;54.806;9.640;2023-07-09T08:55:37;23.60;50.60
71668;DHT22;59504;54.806;9.640;2023-07-09T08:57:42;23.70;50.60
71668;DHT22;59504;54.806;9.640;2023-07-09T08:59:43;23.70;50.00
71668;DHT22;59504;54.806;9.640;2023-07-09T09:01:54;23.80;50.80
71668;DHT22;59504;54.806;9.640;2023-07-09T09:03:59;23.90;48.70
71668;DHT22;59504;54.806;9.640;2023-07-09T09:06:00;24.00;50.00
71668;DHT22;59504;54.806;9.640;2023-07-09T09:08:27;24.00;48.60
71668;DHT22;59504;54.806;9.640;2023-07-09T09:10:42;23.90;47.50
71668;DHT22;59504;54.806;9.640;2023-07-09T09:12:59;23.90;47.90
71668;DHT22;59504;54.806;9.640;2023-07-09T09:15:03;24.00;48.60
71668;DHT22;59504;54.806;9.640;2023-07-09T09:17:09;24.10;49.10
71668;DHT22;59504;54.806;9.640;2023-07-09T09:19:22;24.00;48.70
71668;DHT22;59504;54.806;9.640;2023-07-09T09:21:25;24.10;48.50
71668;DHT22;59504;54.806;9.640;2023-07-09T09:23:40;24.10;48.30
71668;DHT22;59504;54.806;9.640;2023-07-09T09:25:43;24.10;48.90
71668;DHT22;59504;54.806;9.640;2023-07-09T09:27:45;24.10;50.50
71668;DHT22;59504;54.806;9.640;2023-07-09T09:29:46;24.10;48.90
71668;DHT22;59504;54.806;9.640;2023-07-09T09:31:48;24.10;47.90
71668;DHT22;59504;54.806;9.640;2023-07-09T09:33:50;24.20;50.90
71668;DHT22;59504;54.806;9.640;2023-07-09T09:36:00;24.20;51.50
71668;DHT22;59504;54.806;9.640;2023-07-09T09:38:02;24.20;51.00
71668;DHT22;59504;54.806;9.640;2023-07-09T09:40:09;24.30;51.70
71668;DHT22;59504;54.806;9.640;2023-07-09T09:42:10;24.20;50.60
71668;DHT22;59504;54.806;9.640;2023-07-09T09:44:18;24.20;48.20
71668;DHT22;59504;54.806;9.640;2023-07-09T09:46:20;24.20;48.70
71668;DHT22;59504;54.806;9.640;2023-07-09T09:48:28;24.20;47.40
71668;DHT22;59504;54.806;9.640;2023-07-09T09:50:30;24.30;47.80
71668;DHT22;59504;54.806;9.640;2023-07-09T09:52:31;24.20;47.40
71668;DHT22;59504;54.806;9.640;2023-07-09T09:54:35;24.30;47.80
71668;DHT22;59504;54.806;9.640;2023-07-09T09:56:36;24.20;48.10
71668;DHT22;59504;54.806;9.640;2023-07-09T09:58:39;24.30;48.40
71668;DHT22;59504;54.806;9.640;2023-07-09T10:00:40;24.30;48.10
71668;DHT22;59504;54.806;9.640;2023-07-09T10:02:40;24.40;48.30
71668;DHT22;59504;54.806;9.640;2023-07-09T10:04:42;24.50;47.90
71668;DHT22;59504;54.806;9.640;2023-07-09T10:06:49;24.50;47.50
71668;DHT22;59504;54.806;9.640;2023-07-09T10:08:56;24.60;47.10
71668;DHT22;59504;54.806;9.640;2023-07-09T10:11:00;24.70;46.90
71668;DHT22;59504;54.806;9.640;2023-07-09T10:13:11;24.80;45.40
71668;DHT22;59504;54.806;9.640;2023-07-09T10:17:21;24.80;47.10
71668;DHT22;59504;54.806;9.640;2023-07-09T10:19:24;24.80;46.80
71668;DHT22;59504;54.806;9.640;2023-07-09T10:23:27;24.90;45.20
71668;DHT22;59504;54.806;9.640;2023-07-09T10:25:29;24.90;44.90
71668;DHT22;59504;54.806;9.640;2023-07-09T10:27:46;24.90;44.90
71668;DHT22;59504;54.806;9.640;2023-07-09T10:40:41;25.00;43.40
71668;DHT22;59504;54.806;9.640;2023-07-09T10:42:48;24.90;43.80
71668;DHT22;59504;54.806;9.640;2023-07-09T10:44:54;24.90;44.80
71668;DHT22;59504;54.806;9.640;2023-07-09T10:46:56;24.90;45.20
71668;DHT22;59504;54.806;9.640;2023-07-09T10:48:58;25.00;44.20
71668;DHT22;59504;54.806;9.640;2023-07-09T10:51:00;25.00;43.10
71668;DHT22;59504;54.806;9.640;2023-07-09T10:53:25;25.00;42.50
71668;DHT22;59504;54.806;9.640;2023-07-09T10:55:31;25.10;42.10
71668;DHT22;59504;54.806;9.640;2023-07-09T10:59:34;25.10;42.30
71668;DHT22;59504;54.806;9.640;2023-07-09T11:01:38;25.00;41.60
71668;DHT22;59504;54.806;9.640;2023-07-09T11:03:42;25.00;40.60
71668;DHT22;59504;54.806;9.640;2023-07-09T11:05:43;24.90;41.00
71668;DHT22;59504;54.806;9.640;2023-07-09T11:08:02;25.00;41.70
71668;DHT22;59504;54.806;9.640;2023-07-09T11:10:14;25.00;41.80
71668;DHT22;59504;54.806;9.640;2023-07-09T11:12:19;25.10;42.50
71668;DHT22;59504;54.806;9.640;2023-07-09T11:14:25;25.10;42.30
71668;DHT22;59504;54.806;9.640;2023-07-09T11:16:28;25.10;40.60
71668;DHT22;59504;54.806;9.640;2023-07-09T11:18:30;25.10;41.10
71668;DHT22;59504;54.806;9.640;2023-07-09T11:20:35;25.20;40.60
71668;DHT22;59504;54.806;9.640;2023-07-09T11:22:39;25.10;39.50
71668;DHT22;59504;54.806;9.640;2023-07-09T11:26:47;25.10;40.80
71668;DHT22;59504;54.806;9.640;2023-07-09T11:28:53;25.20;41.40
71668;DHT22;59504;54.806;9.640;2023-07-09T11:30:54;25.10;38.60
71668;DHT22;59504;54.806;9.640;2023-07-09T11:32:59;25.10;38.70
71668;DHT22;59504;54.806;9.640;2023-07-09T11:35:08;25.10;39.50
71668;DHT22;59504;54.806;9.640;2023-07-09T11:37:11;25.10;39.20
71668;DHT22;59504;54.806;9.640;2023-07-09T11:41:34;25.10;38.50
71668;DHT22;59504;54.806;9.640;2023-07-09T11:43:36;25.00;38.70
71668;DHT22;59504;54.806;9.640;2023-07-09T11:45:46;25.10;38.60
71668;DHT22;59504;54.806;9.640;2023-07-09T11:47:55;25.10;38.80
71668;DHT22;59504;54.806;9.640;2023-07-09T11:52:02;25.00;38.60
71668;DHT22;59504;54.806;9.640;2023-07-09T11:54:03;25.00;37.50
71668;DHT22;59504;54.806;9.640;2023-07-09T11:56:04;24.90;36.50
71668;DHT22;59504;54.806;9.640;2023-07-09T11:58:09;24.90;37.50
71668;DHT22;59504;54.806;9.640;2023-07-09T12:00:11;24.90;37.70
71668;DHT22;59504;54.806;9.640;2023-07-09T12:02:16;24.90;38.30
71668;DHT22;59504;54.806;9.640;2023-07-09T12:04:17;24.90;37.80
71668;DHT22;59504;54.806;9.640;2023-07-09T12:06:23;24.90;38.50
71668;DHT22;59504;54.806;9.640;2023-07-09T12:08:43;24.90;38.40
71668;DHT22;59504;54.806;9.640;2023-07-09T12:10:45;25.00;38.90
71668;DHT22;59504;54.806;9.640;2023-07-09T12:12:45;24.90;37.60
71668;DHT22;59504;54.806;9.640;2023-07-09T12:14:46;25.00;38.90
71668;DHT22;59504;54.806;9.640;2023-07-09T12:16:47;25.00;39.20
71668;DHT22;59504;54.806;9.640;2023-07-09T12:18:48;25.10;39.00
71668;DHT22;59504;54.806;9.640;2023-07-09T12:20:50;25.20;40.30
71668;DHT22;59504;54.806;9.640;2023-07-09T12:22:51;25.10;39.10
71668;DHT22;59504;54.806;9.640;2023-07-09T12:24:52;25.20;39.80
71668;DHT22;59504;54.806;9.640;2023-07-09T12:26:55;25.20;39.60
71668;DHT22;59504;54.806;9.640;2023-07-09T12:28:57;25.20;40.30
71668;DHT22;59504;54.806;9.640;2023-07-09T12:30:58;25.20;39.80
71668;DHT22;59504;54.806;9.640;2023-07-09T12:32:58;25.20;40.00
71668;DHT22;59504;54.806;9.640;2023-07-09T12:34:59;25.30;40.40
71668;DHT22;59504;54.806;9.640;2023-07-09T12:36:59;25.30;40.20
71668;DHT22;59504;54.806;9.640;2023-07-09T12:39:01;25.40;40.60
71668;DHT22;59504;54.806;9.640;2023-07-09T12:41:03;25.40;40.50
71668;DHT22;59504;54.806;9.640;2023-07-09T12:43:04;25.40;40.60
71668;DHT22;59504;54.806;9.640;2023-07-09T12:45:05;25.50;41.00
71668;DHT22;59504;54.806;9.640;2023-07-09T12:47:07;25.50;40.40
71668;DHT22;59504;54.806;9.640;2023-07-09T12:51:23;25.70;41.30
71668;DHT22;59504;54.806;9.640;2023-07-09T12:53:28;25.70;41.20
71668;DHT22;59504;54.806;9.640;2023-07-09T12:55:29;25.70;40.60
71668;DHT22;59504;54.806;9.640;2023-07-09T12:57:37;25.80;40.70
71668;DHT22;59504;54.806;9.640;2023-07-09T12:59:38;25.80;40.50
71668;DHT22;59504;54.806;9.640;2023-07-09T13:01:39;25.80;40.40
71668;DHT22;59504;54.806;9.640;2023-07-09T13:03:40;25.90;40.60
71668;DHT22;59504;54.806;9.640;2023-07-09T13:05:50;25.90;41.20
71668;DHT22;59504;54.806;9.640;2023-07-09T13:08:40;25.90;41.20
71668;DHT22;59504;54.806;9.640;2023-07-09T13:10:16;25.90;40.10
71668;DHT22;59504;54.806;9.640;2023-07-09T13:12:17;25.80;39.40
71668;DHT22;59504;54.806;9.640;2023-07-09T13:14:23;25.90;39.70
71668;DHT22;59504;54.806;9.640;2023-07-09T13:16:24;25.90;39.10
71668;DHT22;59504;54.806;9.640;2023-07-09T13:18:25;25.80;39.90
71668;DHT22;59504;54.806;9.640;2023-07-09T13:20:29;25.80;39.10
71668;DHT22;59504;54.806;9.640;2023-07-09T13:22:30;25.70;37.90
71668;DHT22;59504;54.806;9.640;2023-07-09T13:24:31;25.80;39.00
71668;DHT22;59504;54.806;9.640;2023-07-09T13:26:33;25.70;37.60
71668;DHT22;59504;54.806;9.640;2023-07-09T13:28:33;25.60;37.90
71668;DHT22;59504;54.806;9.640;2023-07-09T13:30:34;25.70;38.40
71668;DHT22;59504;54.806;9.640;2023-07-09T13:32:38;25.80;38.70
71668;DHT22;59504;54.806;9.640;2023-07-09T13:34:39;25.80;38.80
71668;DHT22;59504;54.806;9.640;2023-07-09T13:36:40;25.80;39.10
71668;DHT22;59504;54.806;9.640;2023-07-09T13:38:41;25.90;39.40
71668;DHT22;59504;54.806;9.640;2023-07-09T13:40:42;25.90;39.40
71668;DHT22;59504;54.806;9.640;2023-07-09T13:42:43;26.00;39.50